Time;durP1;ratioP1;P1;durP2;ratioP2;P2;SDS_P1;SDS_P2;PMS_P1;PMS_P2;Temp;Humidity;BMP_temperature;BMP_pressure;BME280_temperature;BME280_humidity;BME280_pressure;Samples;Min_cycle;Max_cycle;Signal;HPM_P1;HPM_P2
2023/11/20 00:00:50;;;;;;;1.70;0.35;;;12.00;99.90;;;;;;5051504;28;20031;-90
2023/11/20 00:03:15;;;;;;;0.35;0.30;;;12.00;99.90;;;;;;5053112;28;20056;-90
2023/11/20 00:05:41;;;;;;;0.85;0.50;;;12.00;99.90;;;;;;5053950;28;20091;-89
2023/11/20 00:08:07;;;;;;;0.95;0.30;;;12.10;99.90;;;;;;5033774;28;20048;-90
2023/11/20 00:10:34;;;;;;;1.27;0.30;;;12.00;99.90;;;;;;5051697;28;20029;-91
2023/11/20 00:13:02;;;;;;;1.15;0.20;;;12.10;99.90;;;;;;5063249;28;20029;-91
2023/11/20 00:15:30;;;;;;;;;;;12.10;99.90;;;;;;5051699;28;20029;-90
2023/11/20 00:17:55;;;;;;;;;;;12.10;99.90;;;;;;5047510;28;19913;-90
2023/11/20 00:20:21;;;;;;;0.30;0.30;;;12.00;99.90;;;;;;5061426;28;19993;-90
2023/11/20 00:22:46;;;;;;;0.35;0.13;;;12.00;99.90;;;;;;5042897;28;20041;-89
2023/11/20 00:25:12;;;;;;;2.25;0.20;;;12.00;99.90;;;;;;5051060;28;20040;-91
2023/11/20 00:27:37;;;;;;;1.52;0.50;;;12.00;99.90;;;;;;5051716;28;20052;-91
2023/11/20 00:30:05;;;;;;;0.20;0.20;;;12.10;99.90;;;;;;5052755;28;20033;-90
2023/11/20 00:32:30;;;;;;;1.75;0.40;;;12.00;99.90;;;;;;5062073;28;20028;-90
2023/11/20 00:34:56;;;;;;;0.43;0.20;;;12.00;99.90;;;;;;5068188;28;20722;-92
2023/11/20 00:37:22;;;;;;;1.85;0.30;;;12.00;99.90;;;;;;5052097;28;20036;-91
2023/11/20 00:39:50;;;;;;;0.55;0.32;;;12.00;99.90;;;;;;5048135;28;20029;-91
2023/11/20 00:42:17;;;;;;;0.28;0.10;;;12.00;99.90;;;;;;5063062;28;20056;-91
2023/11/20 00:44:42;;;;;;;0.60;0.30;;;12.10;99.90;;;;;;5053182;28;20116;-90
2023/11/20 00:47:26;;;;;;;0.93;0.40;;;12.00;99.90;;;;;;5045310;28;20144;-90
2023/11/20 00:49:54;;;;;;;0.40;0.30;;;12.00;99.90;;;;;;5051622;28;20079;-91
2023/11/20 00:52:20;;;;;;;;;;;12.10;99.90;;;;;;5043731;28;20029;-91
2023/11/20 00:54:45;;;;;;;2.45;0.38;;;12.10;99.90;;;;;;5061915;28;20291;-90
2023/11/20 00:57:11;;;;;;;1.00;0.40;;;12.10;99.90;;;;;;5046346;28;20029;-90
2023/11/20 00:59:36;;;;;;;1.48;0.40;;;12.20;99.90;;;;;;5061502;28;20038;-90
2023/11/20 01:02:02;;;;;;;3.13;0.65;;;12.20;99.90;;;;;;5050449;28;20021;-90
2023/11/20 01:04:28;;;;;;;1.02;0.35;;;12.20;99.90;;;;;;5061425;28;20031;-89
2023/11/20 01:06:56;;;;;;;0.38;0.38;;;12.20;99.90;;;;;;5060451;28;20116;-90
2023/11/20 01:09:21;;;;;;;0.68;0.40;;;12.20;99.90;;;;;;5059685;28;20056;-91
2023/11/20 01:11:47;;;;;;;0.88;0.38;;;12.20;99.90;;;;;;5057116;28;20790;-90
2023/11/20 01:14:15;;;;;;;3.78;0.60;;;12.20;99.90;;;;;;5058395;28;20044;-90
2023/11/20 01:16:41;;;;;;;1.10;0.60;;;12.20;99.90;;;;;;5064044;28;20381;-90
2023/11/20 01:19:06;;;;;;;1.02;0.50;;;12.20;99.90;;;;;;5047167;28;20027;-90
2023/11/20 01:21:35;;;;;;;0.40;0.40;;;12.20;99.90;;;;;;5050601;28;20040;-90
2023/11/20 01:24:01;;;;;;;1.38;0.60;;;12.20;99.90;;;;;;5051881;28;20025;-90
2023/11/20 01:26:26;;;;;;;0.70;0.40;;;12.20;99.90;;;;;;5047782;28;20557;-90
2023/11/20 01:28:53;;;;;;;1.48;0.60;;;12.20;99.90;;;;;;5046473;28;20036;-91
2023/11/20 01:31:18;;;;;;;2.47;0.55;;;12.20;99.90;;;;;;5053236;28;20059;-89
2023/11/20 01:33:45;;;;;;;0.40;0.40;;;12.20;99.90;;;;;;5051927;28;20056;-90
2023/11/20 01:36:15;;;;;;;1.02;0.40;;;12.20;99.90;;;;;;5051289;28;20052;-90
2023/11/20 01:38:41;;;;;;;1.15;0.52;;;12.20;99.90;;;;;;5044906;28;20017;-90
2023/11/20 01:41:07;;;;;;;0.95;0.50;;;12.30;99.90;;;;;;5059211;28;20025;-91
2023/11/20 01:43:32;;;;;;;3.72;0.80;;;12.20;99.90;;;;;;5053029;28;20037;-90
2023/11/20 01:46:08;;;;;;;1.73;0.50;;;12.30;99.90;;;;;;5050431;28;20058;-90
2023/11/20 01:48:34;;;;;;;1.55;0.63;;;12.20;99.90;;;;;;5061223;28;20048;-90
2023/11/20 01:51:01;;;;;;;0.82;0.63;;;12.30;99.90;;;;;;5060086;28;20037;-90
2023/11/20 01:53:28;;;;;;;1.58;0.50;;;12.30;99.90;;;;;;5048769;28;20037;-91
2023/11/20 01:55:55;;;;;;;2.40;0.57;;;12.30;99.90;;;;;;5054439;28;20525;-91
2023/11/20 01:58:23;;;;;;;2.17;0.57;;;12.30;99.90;;;;;;5054318;28;20504;-90
2023/11/20 02:00:49;;;;;;;1.88;0.40;;;12.30;99.90;;;;;;5065658;28;20036;-92
2023/11/20 02:03:15;;;;;;;0.65;0.50;;;12.30;99.90;;;;;;5050940;28;20021;-91
2023/11/20 02:05:43;;;;;;;2.45;0.60;;;12.30;99.90;;;;;;5048503;28;20033;-90
2023/11/20 02:08:09;;;;;;;2.70;0.50;;;12.30;99.90;;;;;;5050346;28;20108;-91
2023/11/20 02:10:35;;;;;;;1.27;0.43;;;12.40;99.90;;;;;;5066751;28;20125;-89
2023/11/20 02:13:04;;;;;;;1.77;0.63;;;12.30;99.90;;;;;;5052008;28;20032;-90
2023/11/20 02:15:30;;;;;;;2.42;0.60;;;12.30;99.90;;;;;;5047119;28;20665;-90
2023/11/20 02:17:59;;;;;;;1.13;0.55;;;12.30;99.90;;;;;;5051119;28;20040;-91
2023/11/20 02:20:27;;;;;;;0.73;0.57;;;12.30;99.90;;;;;;5055799;28;20017;-91
2023/11/20 02:22:52;;;;;;;0.88;0.57;;;12.30;99.90;;;;;;5068361;28;20058;-90
2023/11/20 02:25:18;;;;;;;0.82;0.60;;;12.30;99.90;;;;;;5051879;28;20067;-90
2023/11/20 02:27:47;;;;;;;0.98;0.50;;;12.40;99.90;;;;;;5050000;28;20419;-90
2023/11/20 02:30:13;;;;;;;2.22;0.63;;;12.30;99.90;;;;;;5065962;28;20058;-91
2023/11/20 02:32:38;;;;;;;0.68;0.60;;;12.30;99.90;;;;;;5056915;28;20053;-92
2023/11/20 02:35:04;;;;;;;1.05;0.40;;;12.30;99.90;;;;;;5043373;28;20040;-91
2023/11/20 02:37:31;;;;;;;0.73;0.45;;;12.30;99.90;;;;;;5047128;28;20040;-92
2023/11/20 02:39:57;;;;;;;1.20;0.50;;;12.30;99.90;;;;;;5045528;28;20052;-91
2023/11/20 02:42:23;;;;;;;3.17;0.50;;;12.20;99.90;;;;;;5062814;28;20055;-92
2023/11/20 02:44:52;;;;;;;0.90;0.63;;;12.30;99.90;;;;;;5050806;28;20113;-92
2023/11/20 02:47:18;;;;;;;1.38;0.60;;;12.30;99.90;;;;;;5047827;28;20025;-90
2023/11/20 02:49:43;;;;;;;2.15;0.40;;;12.30;99.90;;;;;;5044909;28;20032;-92
2023/11/20 02:52:09;;;;;;;0.43;0.40;;;12.30;99.90;;;;;;5030599;28;20040;-91
2023/11/20 02:54:37;;;;;;;2.35;0.65;;;12.30;99.90;;;;;;5049107;28;20029;-91
2023/11/20 02:57:03;;;;;;;0.60;0.60;;;12.30;99.90;;;;;;5041095;28;20427;-91
2023/11/20 02:59:29;;;;;;;1.67;0.50;;;12.30;99.90;;;;;;5049868;28;20032;-92
2023/11/20 03:01:55;;;;;;;0.95;0.60;;;12.40;99.90;;;;;;5050041;28;20462;-88
2023/11/20 03:04:23;;;;;;;0.68;0.55;;;12.30;99.90;;;;;;5048377;28;20028;-91
2023/11/20 03:06:49;;;;;;;1.33;0.60;;;12.20;99.90;;;;;;5047610;28;20033;-92
2023/11/20 03:09:20;;;;;;;3.42;0.47;;;12.30;99.90;;;;;;5043052;28;20062;-92
2023/11/20 03:11:46;;;;;;;1.02;0.57;;;12.30;99.90;;;;;;5065421;28;20033;-92
2023/11/20 03:14:13;;;;;;;0.50;0.40;;;12.30;99.90;;;;;;5051104;28;20056;-92
2023/11/20 03:16:39;;;;;;;0.73;0.45;;;12.30;99.90;;;;;;5046340;28;20032;-92
2023/11/20 03:19:07;;;;;;;2.03;0.30;;;12.20;99.90;;;;;;5033103;28;20037;-90
2023/11/20 03:21:33;;;;;;;0.77;0.52;;;12.30;99.90;;;;;;5046193;28;20035;-92
2023/11/20 03:23:59;;;;;;;2.55;0.80;;;12.30;99.90;;;;;;5042955;28;20017;-93
2023/11/20 03:26:26;;;;;;;2.97;0.40;;;12.30;99.90;;;;;;5040006;28;20100;-92
2023/11/20 03:28:52;;;;;;;2.40;0.40;;;12.30;99.90;;;;;;5048007;28;20033;-91
2023/11/20 03:31:19;;;;;;;0.90;0.60;;;12.30;99.90;;;;;;5048767;28;20173;-92
2023/11/20 03:33:47;;;;;;;0.85;0.40;;;12.30;99.90;;;;;;5061531;28;20064;-91
2023/11/20 03:36:14;;;;;;;0.65;0.30;;;12.40;99.90;;;;;;5064928;28;20150;-92
2023/11/20 03:38:44;;;;;;;1.10;0.30;;;12.40;99.90;;;;;;5061207;28;20063;-92
2023/11/20 03:41:11;;;;;;;1.42;0.50;;;12.30;99.90;;;;;;5028325;28;20033;-91
2023/11/20 03:43:37;;;;;;;5.82;0.60;;;12.40;99.90;;;;;;5044644;28;20646;-92
2023/11/20 03:46:02;;;;;;;2.03;0.35;;;12.30;99.90;;;;;;5047437;28;20029;-92
2023/11/20 03:48:28;;;;;;;2.38;0.70;;;12.30;99.90;;;;;;5050746;28;20029;-92
2023/11/20 03:50:53;;;;;;;0.32;0.30;;;12.20;99.90;;;;;;5048227;28;20412;-90
2023/11/20 03:53:19;;;;;;;1.02;0.35;;;12.30;99.90;;;;;;5046540;28;20025;-93
2023/11/20 03:55:47;;;;;;;1.00;0.45;;;12.30;99.90;;;;;;5030331;28;20047;-92
2023/11/20 03:58:13;;;;;;;0.65;0.35;;;12.40;99.90;;;;;;5063270;28;20534;-89
2023/11/20 04:00:38;;;;;;;9.32;0.52;;;12.30;99.90;;;;;;5045642;28;20025;-91
2023/11/20 04:03:04;;;;;;;2.67;0.60;;;12.30;99.90;;;;;;5049774;28;20032;-91
2023/11/20 04:05:29;;;;;;;1.52;0.40;;;12.30;99.90;;;;;;5041419;28;20021;-91
2023/11/20 04:07:55;;;;;;;2.25;0.50;;;12.20;99.90;;;;;;5044115;28;20033;-91
2023/11/20 04:10:21;;;;;;;3.80;0.52;;;12.20;99.90;;;;;;5045294;28;20033;-92
2023/11/20 04:12:47;;;;;;;1.27;0.45;;;12.20;99.90;;;;;;5042211;28;20025;-91
2023/11/20 04:15:13;;;;;;;1.27;0.40;;;12.30;99.90;;;;;;5040977;28;20033;-92
2023/11/20 04:17:39;;;;;;;1.45;0.68;;;12.30;99.90;;;;;;5042021;28;20430;-91
2023/11/20 04:20:06;;;;;;;1.73;0.57;;;12.30;99.90;;;;;;5047796;28;20028;-92
2023/11/20 04:22:32;;;;;;;0.63;0.30;;;12.30;99.90;;;;;;5048079;28;20485;-91
2023/11/20 04:24:59;;;;;;;0.95;0.40;;;12.30;99.90;;;;;;5051689;28;20053;-91
2023/11/20 04:27:25;;;;;;;2.05;0.52;;;12.30;99.90;;;;;;5044388;28;20557;-90
2023/11/20 04:29:50;;;;;;;1.75;0.68;;;12.20;99.90;;;;;;5048687;28;20025;-91
2023/11/20 04:32:18;;;;;;;1.45;0.60;;;12.30;99.90;;;;;;5060905;28;20021;-90
2023/11/20 04:34:45;;;;;;;0.73;0.32;;;12.30;99.90;;;;;;5041309;28;20029;-92
2023/11/20 04:37:11;;;;;;;1.23;0.45;;;12.20;99.90;;;;;;5044890;28;20056;-92
2023/11/20 04:39:36;;;;;;;0.73;0.40;;;12.20;99.90;;;;;;5047477;28;20074;-92
2023/11/20 04:42:03;;;;;;;1.42;0.60;;;12.30;99.90;;;;;;5043527;28;20033;-92
2023/11/20 04:44:34;;;;;;;1.08;0.45;;;12.30;99.90;;;;;;5049106;28;20541;-92
2023/11/20 04:47:00;;;;;;;1.85;0.32;;;12.30;99.90;;;;;;5064315;28;20033;-92
2023/11/20 04:49:26;;;;;;;1.73;0.40;;;12.30;99.90;;;;;;5043039;28;20556;-89
2023/11/20 04:51:54;;;;;;;0.47;0.40;;;12.30;99.90;;;;;;5065190;28;20391;-91
2023/11/20 04:54:19;;;;;;;;;;;12.30;99.90;;;;;;5048091;28;20063;-92
2023/11/20 04:56:45;;;;;;;0.93;0.40;;;12.20;99.90;;;;;;5048852;28;19909;-92
2023/11/20 04:59:12;;;;;;;1.00;0.38;;;12.30;99.90;;;;;;5062004;28;20025;-91
2023/11/20 05:01:38;;;;;;;1.15;0.47;;;12.20;99.90;;;;;;5043194;28;20030;-92
2023/11/20 05:04:07;;;;;;;2.75;0.45;;;12.20;99.90;;;;;;5044845;28;20030;-94
2023/11/20 05:06:35;;;;;;;1.92;0.65;;;12.10;99.90;;;;;;5040881;28;20068;-92
2023/11/20 05:09:01;;;;;;;0.55;0.32;;;12.30;99.90;;;;;;5066182;28;20039;-90
2023/11/20 05:11:29;;;;;;;0.52;0.50;;;12.10;99.90;;;;;;5049911;28;20091;-92
2023/11/20 05:13:58;;;;;;;0.38;0.30;;;12.10;99.90;;;;;;5065899;28;20086;-92
2023/11/20 05:16:28;;;;;;;1.38;0.50;;;12.00;99.90;;;;;;5049132;28;20112;-91
2023/11/20 05:18:56;;;;;;;0.95;0.45;;;12.20;99.90;;;;;;5063580;28;20052;-91
2023/11/20 05:21:22;;;;;;;;;;;12.10;99.90;;;;;;5050689;28;20029;-92
2023/11/20 05:23:52;;;;;;;1.52;0.68;;;12.10;99.90;;;;;;5063879;28;19923;-91
2023/11/20 05:26:18;;;;;;;3.13;0.70;;;12.10;99.90;;;;;;5052783;28;20373;-91
2023/11/20 05:28:44;;;;;;;1.75;0.70;;;12.20;99.90;;;;;;5051105;28;20509;-91
2023/11/20 05:31:10;;;;;;;0.85;0.50;;;12.10;99.90;;;;;;5067166;28;20028;-92
2023/11/20 05:33:40;;;;;;;1.52;0.63;;;12.10;99.90;;;;;;5067306;28;20356;-92
2023/11/20 05:36:06;;;;;;;2.08;0.50;;;12.10;99.90;;;;;;5050752;28;20112;-92
2023/11/20 05:38:31;;;;;;;0.93;0.68;;;12.10;99.90;;;;;;5053212;28;20135;-91
2023/11/20 05:40:57;;;;;;;1.85;0.55;;;12.10;99.90;;;;;;5052230;28;20025;-91
2023/11/20 05:43:23;;;;;;;2.42;1.25;;;12.10;99.90;;;;;;5052266;28;20108;-92
2023/11/20 05:45:52;;;;;;;1.02;0.68;;;12.10;99.90;;;;;;5050775;28;20113;-92
2023/11/20 05:48:18;;;;;;;2.13;0.80;;;12.10;99.90;;;;;;5051028;28;20075;-92
2023/11/20 05:50:45;;;;;;;4.53;0.50;;;12.10;99.90;;;;;;5051055;28;20033;-91
2023/11/20 05:53:13;;;;;;;0.35;0.20;;;12.00;99.90;;;;;;5067586;28;20052;-92
2023/11/20 05:55:38;;;;;;;1.10;0.55;;;12.10;99.90;;;;;;5052496;28;20033;-91
2023/11/20 05:58:04;;;;;;;7.63;0.73;;;12.10;99.90;;;;;;5064720;28;20055;-93
2023/11/20 06:00:31;;;;;;;1.08;0.70;;;12.00;99.90;;;;;;5052026;28;20025;-92
2023/11/20 06:02:59;;;;;;;1.27;0.60;;;12.00;99.90;;;;;;5051447;28;20021;-92
2023/11/20 06:05:25;;;;;;;;;;;12.10;99.90;;;;;;5044465;28;20033;-91
2023/11/20 06:07:52;;;;;;;0.38;0.38;;;12.10;99.90;;;;;;5050629;28;20011;-90
2023/11/20 06:10:18;;;;;;;4.45;0.95;;;12.10;99.90;;;;;;5061461;28;20059;-91
2023/11/20 06:12:44;;;;;;;2.55;0.57;;;12.00;99.90;;;;;;5065410;28;20411;-91
2023/11/20 06:15:10;;;;;;;2.33;0.43;;;12.00;99.90;;;;;;5065618;28;20120;-93
2023/11/20 06:17:38;;;;;;;4.40;0.90;;;12.00;99.90;;;;;;5050326;28;20036;-92
2023/11/20 06:20:06;;;;;;;3.50;0.90;;;12.10;99.90;;;;;;5033258;28;20041;-91
2023/11/20 06:22:34;;;;;;;2.67;0.80;;;12.00;99.90;;;;;;5044580;28;20036;-90
2023/11/20 06:25:00;;;;;;;1.02;0.57;;;12.00;99.90;;;;;;5048227;28;22301;-89
2023/11/20 06:27:25;;;;;;;1.85;0.90;;;12.00;99.90;;;;;;5043588;28;20037;-92
2023/11/20 06:29:51;;;;;;;3.03;0.80;;;12.00;99.90;;;;;;5041204;28;20028;-90
2023/11/20 06:32:16;;;;;;;2.85;1.05;;;11.90;99.90;;;;;;5042897;28;20563;-88
2023/11/20 06:34:42;;;;;;;5.10;1.70;;;12.00;99.90;;;;;;5046741;28;20025;-92
2023/11/20 06:37:08;;;;;;;1.75;1.15;;;11.90;99.90;;;;;;5033020;28;20519;-92
2023/11/20 06:39:33;;;;;;;5.60;1.17;;;11.90;99.90;;;;;;5044204;28;20041;-89
2023/11/20 06:41:59;;;;;;;2.88;1.05;;;12.00;99.90;;;;;;5049020;28;20030;-93
2023/11/20 06:44:27;;;;;;;4.35;0.93;;;11.90;99.90;;;;;;5058779;28;20536;-87
2023/11/20 06:46:53;;;;;;;;;;;11.90;99.90;;;;;;5051102;28;20025;-93
2023/11/20 06:49:19;;;;;;;3.53;1.00;;;12.00;99.90;;;;;;5062202;28;19923;-89
2023/11/20 06:51:45;;;;;;;2.58;1.00;;;11.90;99.90;;;;;;5047708;28;20033;-90
2023/11/20 06:54:12;;;;;;;2.78;0.90;;;11.90;99.90;;;;;;5050909;28;20067;-92
2023/11/20 06:56:39;;;;;;;4.80;1.30;;;11.90;99.90;;;;;;5047457;28;20026;-93
2023/11/20 06:59:07;;;;;;;2.55;1.10;;;11.80;99.90;;;;;;5053381;28;20029;-93
2023/11/20 07:01:32;;;;;;;;;;;11.80;99.90;;;;;;5050507;28;20083;-90
2023/11/20 07:03:59;;;;;;;5.68;1.30;;;11.80;99.90;;;;;;5049287;28;19908;-91
2023/11/20 07:06:27;;;;;;;6.05;1.85;;;11.90;99.90;;;;;;5069046;28;20026;-94
2023/11/20 07:08:54;;;;;;;1.48;1.00;;;11.80;99.90;;;;;;5053609;28;20060;-94
2023/11/20 07:11:23;;;;;;;2.60;1.10;;;11.80;99.90;;;;;;5059762;28;20025;-95
2023/11/20 07:13:51;;;;;;;2.13;0.90;;;11.80;99.90;;;;;;5054392;28;20028;-92
2023/11/20 07:16:17;;;;;;;3.20;1.10;;;11.80;99.90;;;;;;5053883;28;20029;-93
2023/11/20 07:18:42;;;;;;;1.80;1.23;;;11.80;99.90;;;;;;5053132;28;20032;-92
2023/11/20 07:21:10;;;;;;;2.65;0.90;;;11.90;99.90;;;;;;5064713;28;20030;-92
2023/11/20 07:23:36;;;;;;;7.68;1.30;;;11.80;99.90;;;;;;5063503;28;20068;-93
2023/11/20 07:26:02;;;;;;;1.10;1.00;;;11.80;99.90;;;;;;5053655;28;20028;-92
2023/11/20 07:28:28;;;;;;;4.10;1.38;;;11.80;99.90;;;;;;5050247;28;20543;-90
2023/11/20 07:30:54;;;;;;;3.00;1.27;;;11.80;99.90;;;;;;5047440;28;20044;-93
2023/11/20 07:33:19;;;;;;;4.53;1.25;;;11.80;99.90;;;;;;5040612;28;20416;-92
2023/11/20 07:35:46;;;;;;;5.28;1.30;;;11.80;99.90;;;;;;5050383;28;20029;-92
2023/11/20 07:38:12;;;;;;;2.50;1.08;;;11.90;99.90;;;;;;5052938;28;20039;-93
2023/11/20 07:40:37;;;;;;;1.38;1.00;;;11.90;99.90;;;;;;5041925;28;20108;-91
2023/11/20 07:43:06;;;;;;;4.53;1.00;;;11.80;99.90;;;;;;5049085;28;20025;-92
2023/11/20 07:45:31;;;;;;;5.07;1.55;;;11.90;99.90;;;;;;5026823;28;20105;-93
2023/11/20 07:47:57;;;;;;;5.85;1.30;;;11.90;99.90;;;;;;5047140;28;20175;-92
2023/11/20 07:50:22;;;;;;;3.65;1.08;;;11.90;99.90;;;;;;5050904;28;20036;-93
2023/11/20 07:52:50;;;;;;;1.88;0.95;;;11.90;99.90;;;;;;5060804;28;20033;-94
2023/11/20 07:55:16;;;;;;;1.40;0.95;;;11.80;99.90;;;;;;5048167;28;20037;-91
2023/11/20 07:57:41;;;;;;;3.22;1.13;;;11.80;99.90;;;;;;5062017;28;20036;-92
2023/11/20 08:00:11;;;;;;;4.00;1.00;;;11.80;99.90;;;;;;5045722;28;20051;-93
2023/11/20 08:02:37;;;;;;;3.05;1.10;;;11.80;99.90;;;;;;5043250;28;20052;-95
2023/11/20 08:05:05;;;;;;;3.75;1.02;;;11.80;99.90;;;;;;5037821;28;20025;-89
2023/11/20 08:07:31;;;;;;;2.22;1.08;;;11.90;99.90;;;;;;5040434;28;20034;-92
2023/11/20 08:09:57;;;;;;;5.25;1.17;;;11.90;99.90;;;;;;5043028;28;20087;-91
2023/11/20 08:12:23;;;;;;;6.63;1.40;;;11.90;99.90;;;;;;5047203;28;20029;-91
2023/11/20 08:14:51;;;;;;;4.05;1.23;;;12.00;99.90;;;;;;5042395;28;20024;-92
2023/11/20 08:17:16;;;;;;;;;;;12.00;99.90;;;;;;5062419;28;20029;-92
2023/11/20 08:19:42;;;;;;;1.98;0.85;;;11.90;99.90;;;;;;5047424;28;20339;-91
2023/11/20 08:22:10;;;;;;;1.42;0.68;;;11.90;99.90;;;;;;5046125;28;20045;-92
2023/11/20 08:24:38;;;;;;;2.35;0.88;;;11.90;99.90;;;;;;5046337;28;20115;-91
2023/11/20 08:27:04;;;;;;;5.75;0.80;;;11.90;99.90;;;;;;5041535;28;22270;-90
2023/11/20 08:29:32;;;;;;;2.10;0.70;;;11.90;99.90;;;;;;5046669;28;20037;-89
2023/11/20 08:31:59;;;;;;;;;;;11.90;99.90;;;;;;5030090;28;20136;-91
2023/11/20 08:34:26;;;;;;;3.33;1.10;;;11.90;99.90;;;;;;5059935;28;19956;-91
2023/11/20 08:36:55;;;;;;;4.00;1.20;;;11.80;99.90;;;;;;5042280;28;20456;-91
2023/11/20 08:39:31;;;;;;;5.28;0.98;;;11.80;99.90;;;;;;5024360;28;20481;-90
2023/11/20 08:41:58;;;;;;;1.65;0.88;;;11.80;99.90;;;;;;5042075;28;20017;-91
2023/11/20 08:44:25;;;;;;;1.90;0.88;;;11.80;99.90;;;;;;5046255;28;22154;-88
2023/11/20 08:46:51;;;;;;;4.68;1.25;;;11.80;99.90;;;;;;5045795;28;20029;-90
2023/11/20 08:49:19;;;;;;;2.65;0.80;;;11.90;99.90;;;;;;5047762;28;20099;-89
2023/11/20 08:51:44;;;;;;;3.78;0.93;;;11.90;99.90;;;;;;5046263;28;20033;-89
2023/11/20 08:54:10;;;;;;;1.85;0.90;;;11.90;99.90;;;;;;5048890;28;20553;-92
2023/11/20 08:56:36;;;;;;;3.85;0.80;;;11.80;99.90;;;;;;5044716;28;20048;-88
2023/11/20 08:59:04;;;;;;;4.57;1.90;;;11.80;99.90;;;;;;5047908;28;20469;-86
2023/11/20 09:01:35;;;;;;;6.15;1.17;;;11.80;99.90;;;;;;5050647;28;20480;-90
2023/11/20 09:04:05;;;;;;;2.80;1.27;;;11.80;99.90;;;;;;5062178;28;20037;-90
2023/11/20 09:06:34;;;;;;;2.45;1.35;;;11.70;99.90;;;;;;5062334;28;20032;-89
2023/11/20 09:09:05;;;;;;;4.70;0.95;;;11.70;99.90;;;;;;5047277;28;20032;-90
2023/11/20 09:11:31;;;;;;;7.53;2.08;;;11.80;99.90;;;;;;5064042;28;20051;-90
2023/11/20 09:14:03;;;;;;;7.00;1.85;;;11.80;99.90;;;;;;5062913;28;20037;-91
2023/11/20 09:16:29;;;;;;;6.57;1.80;;;11.80;99.90;;;;;;5063734;28;20487;-89
2023/11/20 09:18:55;;;;;;;7.32;1.85;;;11.70;99.90;;;;;;5061192;28;20036;-90
2023/11/20 09:21:23;;;;;;;6.22;1.45;;;11.70;99.90;;;;;;5049324;28;20442;-89
2023/11/20 09:23:51;;;;;;;4.63;1.80;;;11.70;99.90;;;;;;5028028;28;20033;-90
2023/11/20 09:26:19;;;;;;;7.35;1.80;;;11.70;99.90;;;;;;5049127;28;20033;-89
2023/11/20 09:28:46;;;;;;;;;;;11.80;99.90;;;;;;5044522;28;20084;-91
2023/11/20 09:31:21;;;;;;;6.05;1.70;;;11.70;99.90;;;;;;5066063;28;19966;-92
2023/11/20 09:33:50;;;;;;;9.35;2.35;;;11.70;99.90;;;;;;5047511;28;20037;-89
2023/11/20 09:36:16;;;;;;;11.70;2.28;;;11.70;99.90;;;;;;5048480;28;20129;-90
2023/11/20 09:38:45;;;;;;;8.75;2.00;;;11.70;99.90;;;;;;5068893;28;20187;-91
2023/11/20 09:41:13;;;;;;;12.88;2.42;;;11.70;99.90;;;;;;5061811;28;20029;-91
2023/11/20 09:43:41;;;;;;;6.38;2.20;;;11.70;99.90;;;;;;5063168;28;20025;-90
2023/11/20 09:46:12;;;;;;;6.40;2.33;;;11.80;99.90;;;;;;5044323;28;20159;-91
2023/11/20 09:48:39;;;;;;;10.00;2.10;;;11.70;99.90;;;;;;5044841;28;20400;-90
2023/11/20 09:51:09;;;;;;;8.90;2.38;;;11.70;99.90;;;;;;5045659;28;20033;-91
2023/11/20 09:53:37;;;;;;;12.43;2.80;;;11.80;99.90;;;;;;5063999;28;20145;-92
2023/11/20 09:56:04;;;;;;;17.58;2.92;;;11.90;99.90;;;;;;5049849;28;20415;-90
2023/11/20 09:58:34;;;;;;;15.07;3.95;;;11.70;99.90;;;;;;5049127;28;20174;-93
2023/11/20 10:01:09;;;;;;;15.27;4.15;;;11.70;99.90;;;;;;5051850;28;20071;-92
2023/11/20 10:03:39;;;;;;;10.88;2.97;;;11.70;99.90;;;;;;5065414;28;20037;-90
2023/11/20 10:06:11;;;;;;;25.27;3.65;;;11.70;99.90;;;;;;5066716;28;20032;-91
2023/11/20 10:08:43;;;;;;;13.23;3.20;;;11.80;99.90;;;;;;5049316;28;20121;-91
2023/11/20 10:11:16;;;;;;;17.77;3.80;;;11.80;99.90;;;;;;5065837;28;20037;-92
2023/11/20 10:13:44;;;;;;;8.73;2.50;;;11.80;99.90;;;;;;5032607;28;20052;-92
2023/11/20 10:16:19;;;;;;;;;;;11.90;99.90;;;;;;5045327;28;20037;-91
2023/11/20 10:18:46;;;;;;;9.45;2.65;;;11.80;99.90;;;;;;5031182;28;19990;-91
2023/11/20 10:21:15;;;;;;;19.33;3.45;;;11.90;99.90;;;;;;5064677;28;20044;-89
2023/11/20 10:23:43;;;;;;;11.30;2.65;;;11.90;99.90;;;;;;5030556;28;20041;-91
2023/11/20 10:26:14;;;;;;;19.08;4.32;;;11.90;99.90;;;;;;5057366;28;20037;-94
2023/11/20 10:28:40;;;;;;;15.40;3.60;;;11.90;99.90;;;;;;5046974;28;20116;-91
2023/11/20 10:31:08;;;;;;;16.13;2.90;;;12.00;99.90;;;;;;5044204;28;20108;-92
2023/11/20 10:33:34;;;;;;;14.13;3.17;;;12.00;99.90;;;;;;5041874;28;20039;-90
2023/11/20 10:36:29;;;;;;;14.30;3.67;;;12.00;99.90;;;;;;5047883;28;20032;-90
2023/11/20 10:38:55;;;;;;;15.43;3.20;;;12.10;99.90;;;;;;5036815;28;20408;-91
2023/11/20 10:41:21;;;;;;;9.55;3.05;;;12.10;99.90;;;;;;5029618;28;20029;-92
2023/11/20 10:43:46;;;;;;;10.30;2.70;;;12.10;99.90;;;;;;5053716;28;20041;-92
2023/11/20 10:46:14;;;;;;;16.00;2.90;;;12.10;99.90;;;;;;5040850;28;20036;-90
2023/11/20 10:48:39;;;;;;;5.88;1.77;;;12.10;99.90;;;;;;5045196;28;20036;-90
2023/11/20 10:51:12;;;;;;;14.25;2.53;;;12.10;99.90;;;;;;5057207;28;20029;-91
2023/11/20 10:53:40;;;;;;;13.20;3.60;;;12.10;99.90;;;;;;5045670;28;20887;-91
2023/11/20 10:56:12;;;;;;;15.98;2.95;;;12.10;99.90;;;;;;5047016;28;20029;-92
2023/11/20 10:58:40;;;;;;;18.02;2.70;;;12.10;99.90;;;;;;5050658;28;20032;-92
2023/11/20 11:01:07;;;;;;;10.38;2.42;;;12.00;99.90;;;;;;5041283;28;20531;-92
2023/11/20 11:03:34;;;;;;;12.38;2.83;;;12.00;99.90;;;;;;5028168;28;20029;-91
2023/11/20 11:06:09;;;;;;;15.07;2.47;;;12.10;99.90;;;;;;5062739;28;20060;-92
2023/11/20 11:08:36;;;;;;;14.70;2.55;;;12.10;99.90;;;;;;5048547;28;20040;-91
2023/11/20 11:11:03;;;;;;;13.47;2.83;;;12.00;99.90;;;;;;5055035;28;20037;-91
2023/11/20 11:13:38;;;;;;;5.15;2.05;;;12.00;99.90;;;;;;5058696;28;20273;-92
2023/11/20 11:16:12;;;;;;;11.95;2.53;;;12.00;99.90;;;;;;5044139;28;20037;-91
2023/11/20 11:18:45;;;;;;;9.98;2.30;;;12.00;99.90;;;;;;5044691;28;20041;-92
2023/11/20 11:21:16;;;;;;;14.75;2.45;;;12.00;99.90;;;;;;5058672;28;20030;-91
2023/11/20 11:23:51;;;;;;;13.75;2.70;;;11.90;99.90;;;;;;5042453;28;20506;-91
2023/11/20 11:26:28;;;;;;;13.40;2.50;;;11.90;99.90;;;;;;5038776;28;20484;-91
2023/11/20 11:29:02;;;;;;;15.25;2.85;;;11.90;99.90;;;;;;5045554;28;20033;-91
2023/11/20 11:32:00;;;;;;;14.60;3.03;;;11.90;99.90;;;;;;5042918;28;20428;-90
2023/11/20 11:34:26;;;;;;;;;;;11.90;99.90;;;;;;5063497;28;20025;-92
2023/11/20 11:37:25;;;;;;;10.27;2.70;;;11.70;99.90;;;;;;5046765;28;19916;-91
2023/11/20 11:40:09;;;;;;;12.20;2.65;;;11.70;99.90;;;;;;5009323;28;20044;-91
2023/11/20 11:42:45;;;;;;;12.00;2.90;;;11.70;99.90;;;;;;5042596;28;20060;-90
2023/11/20 11:45:17;;;;;;;8.18;2.63;;;11.60;99.90;;;;;;5043987;28;20059;-92
2023/11/20 11:47:47;;;;;;;6.85;2.42;;;11.60;99.90;;;;;;5043962;28;20029;-91
2023/11/20 11:50:19;;;;;;;8.57;2.80;;;11.60;99.90;;;;;;5062672;28;20475;-92
2023/11/20 11:52:48;;;;;;;11.18;3.05;;;11.60;99.90;;;;;;5060382;28;20025;-91
2023/11/20 11:55:19;;;;;;;12.63;2.70;;;11.70;99.90;;;;;;5062621;28;20033;-92
2023/11/20 11:57:58;;;;;;;5.40;2.75;;;11.60;99.90;;;;;;5044163;28;20013;-92
2023/11/20 12:00:26;;;;;;;6.93;2.65;;;11.60;99.90;;;;;;5042097;28;20029;-91
2023/11/20 12:03:08;;;;;;;;;;;11.70;99.90;;;;;;5047162;28;20032;-90
2023/11/20 12:05:53;;;;;;;16.50;2.90;;;11.60;99.90;;;;;;5044313;28;20004;-89
2023/11/20 12:08:22;;;;;;;8.98;2.30;;;11.70;99.90;;;;;;5059867;28;20028;-92
2023/11/20 12:10:51;;;;;;;;;;;11.60;99.90;;;;;;5029862;28;20127;-90
2023/11/20 12:13:26;;;;;;;14.13;2.47;;;11.70;99.90;;;;;;5056669;28;19921;-92
2023/11/20 12:15:52;;;;;;;12.55;3.08;;;11.70;99.90;;;;;;5046839;28;20052;-92
2023/11/20 12:18:28;;;;;;;12.77;2.67;;;11.60;99.90;;;;;;5047474;28;20025;-92
2023/11/20 12:20:59;;;;;;;7.88;2.00;;;11.60;99.90;;;;;;5027755;28;20049;-93
2023/11/20 12:23:32;;;;;;;11.90;2.55;;;11.50;99.90;;;;;;5048919;28;20116;-92
2023/11/20 12:25:59;;;;;;;16.63;2.65;;;11.60;99.90;;;;;;5051232;28;20059;-92
2023/11/20 12:28:32;;;;;;;14.43;3.22;;;11.60;99.90;;;;;;5046962;28;20052;-91
2023/11/20 12:31:05;;;;;;;18.88;2.72;;;11.70;99.90;;;;;;5045554;28;20037;-93
2023/11/20 12:33:36;;;;;;;14.65;2.92;;;11.70;99.90;;;;;;5043238;28;20033;-91
2023/11/20 12:36:04;;;;;;;11.73;3.50;;;11.70;99.90;;;;;;5054484;28;20816;-91
2023/11/20 12:38:33;;;;;;;6.22;2.28;;;11.70;99.90;;;;;;5038461;28;20079;-91
2023/11/20 12:41:05;;;;;;;17.92;3.55;;;11.60;99.90;;;;;;5037693;28;20029;-91
2023/11/20 12:43:35;;;;;;;9.63;2.88;;;11.70;99.90;;;;;;5061649;28;20029;-93
2023/11/20 12:46:04;;;;;;;13.98;3.33;;;11.70;99.90;;;;;;5049499;28;20060;-93
2023/11/20 12:48:30;;;;;;;13.15;3.33;;;11.70;99.90;;;;;;5058629;28;20037;-90
2023/11/20 12:50:59;;;;;;;10.98;2.90;;;11.70;99.90;;;;;;5030778;28;20162;-91